Aeroporto :
LOGIN :

Iscrizione | Disclaimer

   EN    FR    IT 

 










Sommario :    VFR   VFR Marginale   IFR   IFR Intensivo   IFR Molto Intensivo
Visibilità : 
Base nubi : 
>= 8 km
>= 3000ft
5 / 8 km
1000 / 3000 ft
1500m / 5 km
500 / 1000 ft
800 / 1500m
200 / 500 ft
< 800m
< 200 ft
Simboli :   Temporali  Nebbia  Neve Forte  Precipitazioni Forti  Vento > 20 kt
SIGMETs :   Varie  Temporali  Ghiacco  Turbolenza  Onda orograficha  Ceneri Vulcaniche






- Altitudine del aeroporto : 15 ft
- Codice IATA : GIB


LXGB - Gibraltar

ULTIMO METAR :
  • 191850Z AUTO 09026KT 9999 // FEW015/// 16/13 Q1026

METARs OBSOLETI :
  • 191750Z 09019KT 9999 SCT016 16/13 Q1027 RMK WHT
  • 191720Z 09020KT 9999 BKN018 16/13 Q1026 NOSIG RMK WH WHT
  • 191650Z 09020KT 9999 BKN018 16/13 Q1026 NOSIG RMK WHT WHT
  • 191620Z 09018G28KT 9999 FEW018 SCT050 17/13 Q1026 NOSIG RMK BLU BLU

TAF TAF LXGB
Valido dal 19 a 15 ore il 19 a 23 ore UTC


191339Z 1915/1923 09020G30KT 9999 FEW016 BKN045 520002
PROB30
TEMPO 1915/1923 SCT020



MetMap, La meteo Aeronautica in un colpo d'occhio ! - Copyright ORBIFLY Dicembre 2007 - Disclaimer

ORBIFLY MET'MAP TEAM :

Programmazione e sviluppo : Alexandra Zaïnal
Concezione : Baudouin d'Aumeries
Aiuto per la programmazione : Marc-Olivier Méhu
Supporto tecnico e logistico : Manuel Goepfert
Aiuto per la traduzione : Arnaldo La Scala

Contatto : metmap@orbifly.com




FONTI E CREDITI :

   NOAA